Informes de METARS cercanos

 

LEAL - Alicante/El Alte, Spain
Distance from station: SSE 60km
Actualización: 13/04/2021 21:00
Few Clouds
Few Clouds
 Viento del E
Viento: E 13 km/h
Temperatura: 15°C
Rocío: 9°C
Humedad: 68%
Barómetro: 1022 hPa
Clouds: Few Clouds
Visibility: 10 km
Cloud details: Few Clouds 914 m
2021/04/13 19:00 LEAL 131900Z 09007KT 9999 FEW030 15/09 Q1022 NOSIG
LEVC - Valencia (civ/Mi, Spain
Distance from station: NNE 84km
Actualización: 13/04/2021 21:00
Few Clouds
Few Clouds
 Viento del SE
Viento: SE 11 km/h
Temperatura: 15°C
Rocío: 10°C
Humedad: 72%
Barómetro: 1021 hPa
Clouds: Few Clouds
Visibility: 10 km
Cloud details: Few Clouds 1067 m
2021/04/13 19:00 LEVC 131900Z 13006KT 9999 FEW035 15/10 Q1021 NOSIG
 
LEAB - Albacete (civ/Mi, Spain
Distance from station: O 95km
Actualización: 13/04/2021 21:00
Despejado
Despejado
 Viento del SSE
Viento: SSE 9 km/h
Temperatura: 14°C
Rocío: 8°C
Humedad: 67%
Barómetro: 1020 hPa
Resumen: Despejado
Visibility: greater than 10 km
2021/04/13 19:00 LEAB 131900Z 16005KT 130V200 CAVOK 14/08 Q1020 NOSIG
LERI - Alcantarilla(Sp-, Spain
Distance from station: SSO 100km
Actualización: 13/04/2021 20:00
NOT Current
Few Clouds
Few Clouds
 Viento del E
Viento: E 19 km/h
Temperatura: 16°C
Rocío: 8°C
Humedad: 59%
Barómetro: 1021 hPa
Clouds: Few Clouds
Visibility: 10 km
Cloud details: Few Clouds 457 m
2021/04/13 18:00 LERI 131800Z 08010KT 9999 FEW015 16/08 Q1021 NOSIG
 
LELC - San Javier(Mil/C, Spain
Distance from station: S 113km
Actualización: 13/04/2021 21:00
Few Clouds
Few Clouds
 Viento del ENE
Viento: ENE 15 km/h
Temperatura: 15°C
Rocío: 10°C
Humedad: 72%
Barómetro: 1021 hPa
Clouds: Few Clouds
Visibility: 10 km
Cloud details: Few Clouds 732 m
2021/04/13 19:00 LELC 131900Z 07008KT 030V110 9999 FEW024 15/10 Q1021 NOSIG
LEIB - Ibiza/Es Codola, Spain
Distance from station: E 186km
Actualización: 13/04/2021 21:00
Despejado
Despejado
 Viento del ESE
Viento: ESE 7 km/h
Temperatura: 14°C
Rocío: 9°C
Humedad: 72%
Barómetro: 1021 hPa
Resumen: Despejado
Visibility: greater than 10 km
2021/04/13 19:00 LEIB 131900Z 11004KT 080V150 CAVOK 14/09 Q1021 NOSIG
 
LEAM - Almeria Airport, Spain
Distance from station: SSO 256km
Actualización: 13/04/2021 21:00
Despejado
Despejado
 Viento del ENE
Viento: ENE 30 km/h
Temperatura: 16°C
Rocío: 10°C
Humedad: 68%
Barómetro: 1019 hPa
Resumen: Despejado
Visibility: greater than 10 km
2021/04/13 19:00 LEAM 131900Z 07016KT CAVOK 16/10 Q1019
LEMD - Madrid/Barajas, Spain
Distance from station: NO 305km
Actualización: 13/04/2021 21:00
Cubierto
Cubierto
 Viento del N
Viento: N 7 km/h
Temperatura: 12°C
Rocío: 9°C
Humedad: 82%
Barómetro: 1020 hPa
Clouds: Cubierto
Visibility: 10 km
Cloud details: Muy nuboso 1524 m
Cubierto 2438 m
2021/04/13 19:00 LEMD 131900Z 35004KT 9999 BKN050 OVC080 12/09 Q1020 NOSIG
 
LEPA - Palma De Mallorc, Spain
Distance from station: ENE 313km
Actualización: 13/04/2021 21:00
Parcialmente nuboso
Parcialmente nuboso
 Viento del SO
Viento: SO 4 km/h
Temperatura: 15°C
Rocío: 8°C
Humedad: 63%
Barómetro: 1022 hPa
Clouds: Parcialmente nuboso
Visibility: 10 km
Cloud details: Parcialmente nuboso 853 m
2021/04/13 19:00 LEPA 131900Z 22002KT 9999 SCT028 15/08 Q1022 NOSIG